createdAt,value
2024-04-09T00:04:01.729Z,12.8
2024-04-09T00:09:02.713Z,12.4
2024-04-09T00:14:01.257Z,12.7
2024-04-09T00:19:01.879Z,11.0
2024-04-09T00:29:01.316Z,10.8
2024-04-09T00:34:02.131Z,11.6
2024-04-09T00:44:01.211Z,13.2
2024-04-09T00:49:01.362Z,13.3
2024-04-09T00:54:01.369Z,13.6
2024-04-09T00:59:01.181Z,13.1
2024-04-09T01:04:01.880Z,13.5
2024-04-09T01:14:01.403Z,14.0
2024-04-09T01:19:01.309Z,13.7
2024-04-09T01:24:01.379Z,13.3
2024-04-09T01:29:01.298Z,13.2
2024-04-09T01:34:02.057Z,13.3
2024-04-09T01:44:02.286Z,12.8
2024-04-09T01:49:06.379Z,13.0
2024-04-09T01:54:01.350Z,12.8
2024-04-09T01:59:01.233Z,12.5
2024-04-09T02:04:06.418Z,12.0
2024-04-09T02:09:01.464Z,11.4
2024-04-09T02:14:01.301Z,11.2
2024-04-09T02:19:01.510Z,11.1
2024-04-09T02:24:01.597Z,11.0
2024-04-09T02:29:06.341Z,10.9
2024-04-09T02:34:01.411Z,11.0
2024-04-09T02:39:01.470Z,11.4
2024-04-09T02:44:01.279Z,10.8
2024-04-09T02:49:01.380Z,9.9
2024-04-09T02:54:01.315Z,9.9
2024-04-09T02:59:01.312Z,10.1
2024-04-09T03:04:01.973Z,9.5
2024-04-09T03:09:01.536Z,9.2
2024-04-09T03:14:01.307Z,9.6
2024-04-09T03:19:02.512Z,9.2
2024-04-09T03:24:01.380Z,9.0
2024-04-09T03:29:01.303Z,8.4
2024-04-09T03:34:01.584Z,8.8
2024-04-09T03:39:01.511Z,8.8
2024-04-09T03:44:01.177Z,9.3
2024-04-09T03:49:01.734Z,8.5
2024-04-09T03:54:01.428Z,9.3
2024-04-09T03:59:01.291Z,9.3
2024-04-09T04:04:01.654Z,9.4
2024-04-09T04:09:01.397Z,8.8
2024-04-09T04:14:01.307Z,9.7
2024-04-09T04:19:01.426Z,9.3
2024-04-09T04:29:01.497Z,9.3
2024-04-09T04:39:01.322Z,8.8
2024-04-09T04:44:01.218Z,8.6
2024-04-09T04:49:01.752Z,8.5
2024-04-09T04:54:01.320Z,9.2
2024-04-09T04:59:01.277Z,9.6
2024-04-09T05:04:01.536Z,9.8
2024-04-09T05:09:01.648Z,10.2
2024-04-09T05:14:01.341Z,10.2
2024-04-09T05:19:01.870Z,9.7
2024-04-09T05:24:01.341Z,9.6
2024-04-09T05:29:01.315Z,9.8
2024-04-09T05:34:01.818Z,9.9
2024-04-09T05:49:01.690Z,10.1
2024-04-09T06:00:03.472Z,10.4
2024-04-09T06:10:01.292Z,10.2
2024-04-09T06:15:02.971Z,10.2
2024-04-09T06:20:01.486Z,9.7
2024-04-09T06:25:01.241Z,9.0
2024-04-09T06:30:07.336Z,9.4
2024-04-09T06:40:01.333Z,9.9
2024-04-09T06:45:02.372Z,11.2
2024-04-09T06:50:01.970Z,11.3
2024-04-09T06:55:01.221Z,11.4
2024-04-09T07:01:06.552Z,11.2
2024-04-09T07:06:02.301Z,11.0
2024-04-09T07:11:01.360Z,10.5
2024-04-09T07:16:07.262Z,11.0
2024-04-09T07:21:01.520Z,10.4
2024-04-09T07:36:01.573Z,9.6
2024-04-09T07:41:01.352Z,8.7
2024-04-09T07:51:01.639Z,9.0
2024-04-09T07:57:01.366Z,8.6
2024-04-09T08:02:01.818Z,8.8
2024-04-09T08:07:12.221Z,9.0
2024-04-09T08:12:01.907Z,8.4
2024-04-09T08:17:01.867Z,7.6
2024-04-09T08:27:02.253Z,8.0
2024-04-09T08:32:01.960Z,8.2
2024-04-09T08:37:02.863Z,8.1
2024-04-09T08:42:03.748Z,8.3
2024-04-09T08:47:03.000Z,8.4
2024-04-09T08:52:03.730Z,8.1
2024-04-09T08:57:01.395Z,7.6
2024-04-09T09:02:04.303Z,7.9
2024-04-09T09:07:01.271Z,8.8
2024-04-09T09:12:01.381Z,8.3
2024-04-09T09:17:01.415Z,9.0
2024-04-09T09:22:01.372Z,9.4
2024-04-09T09:27:01.419Z,9.4
2024-04-09T09:32:03.729Z,8.4
2024-04-09T09:37:01.412Z,8.1
2024-04-09T09:42:01.408Z,7.8
2024-04-09T09:47:01.344Z,7.8
2024-04-09T09:57:01.356Z,8.3
2024-04-09T10:02:03.472Z,9.5
2024-04-09T10:07:05.345Z,9.5
2024-04-09T10:12:01.343Z,9.4
2024-04-09T10:17:01.342Z,9.4
2024-04-09T10:22:01.756Z,9.0
2024-04-09T10:27:02.718Z,8.6
2024-04-09T10:37:01.398Z,8.6
2024-04-09T10:42:01.422Z,8.5
2024-04-09T10:47:01.358Z,8.4
2024-04-09T10:52:01.309Z,7.9
2024-04-09T11:02:01.284Z,7.8
2024-04-09T11:07:02.359Z,7.8
2024-04-09T11:17:01.974Z,8.1
2024-04-09T11:22:01.832Z,7.3
2024-04-09T11:27:01.427Z,7.4
2024-04-09T11:32:01.192Z,7.6
2024-04-09T11:37:02.540Z,7.4
2024-04-09T11:42:01.397Z,7.6
2024-04-09T11:47:01.981Z,8.0
2024-04-09T11:57:01.346Z,8.2
2024-04-09T12:02:01.355Z,7.9
2024-04-09T12:07:01.375Z,8.0
2024-04-09T12:12:01.266Z,8.4
2024-04-09T12:17:01.166Z,8.2
2024-04-09T12:22:01.846Z,7.9
2024-04-09T12:27:02.304Z,8.4
2024-04-09T12:32:02.002Z,8.5
2024-04-09T12:37:01.189Z,8.8
2024-04-09T12:42:01.313Z,8.7
2024-04-09T12:47:01.465Z,7.9
2024-04-09T12:52:01.244Z,6.9
2024-04-09T12:57:01.343Z,6.1
2024-04-09T13:02:01.592Z,4.9
2024-04-09T13:07:02.312Z,4.5
2024-04-09T13:12:02.387Z,4.6
2024-04-09T13:17:07.905Z,5.6
2024-04-09T13:22:01.232Z,6.0
2024-04-09T13:27:01.204Z,6.4
2024-04-09T13:32:03.114Z,6.7
2024-04-09T13:37:01.243Z,7.4
2024-04-09T13:42:01.177Z,7.2
2024-04-09T13:47:01.581Z,7.3
2024-04-09T13:52:01.239Z,7.4
2024-04-09T13:57:01.470Z,8.0
2024-04-09T14:02:01.243Z,7.6
2024-04-09T14:07:01.175Z,7.0
2024-04-09T14:12:01.460Z,7.0
2024-04-09T14:17:03.394Z,6.3
2024-04-09T14:22:01.252Z,6.3
2024-04-09T14:32:01.494Z,7.2
2024-04-09T14:37:01.819Z,7.0
2024-04-09T14:42:01.806Z,7.8
2024-04-09T14:47:02.352Z,7.7
2024-04-09T14:57:01.789Z,6.6
2024-04-09T15:02:01.431Z,6.6
2024-04-09T15:07:01.823Z,6.3
2024-04-09T15:12:01.299Z,5.5
2024-04-09T15:17:01.580Z,5.2
2024-04-09T15:22:01.250Z,5.2
2024-04-09T15:27:04.995Z,4.6
2024-04-09T15:32:01.541Z,4.6
2024-04-09T15:37:01.300Z,5.0
2024-04-09T15:47:02.510Z,4.6
2024-04-09T15:52:01.763Z,5.0
2024-04-09T15:57:02.241Z,4.8
2024-04-09T16:02:01.271Z,4.8
2024-04-09T16:07:01.236Z,4.8
2024-04-09T16:12:02.971Z,5.0
2024-04-09T16:17:02.804Z,4.7
2024-04-09T16:22:01.170Z,4.5
2024-04-09T16:27:01.170Z,4.3
2024-04-09T16:32:01.318Z,4.1
2024-04-09T16:37:01.408Z,4.2
2024-04-09T16:42:01.221Z,4.6
2024-04-09T16:47:02.936Z,4.2
2024-04-09T16:52:01.720Z,3.6
2024-04-09T16:57:01.836Z,3.3
2024-04-09T17:02:02.479Z,2.4
2024-04-09T17:07:01.194Z,1.7
2024-04-09T17:12:01.541Z,1.2
2024-04-09T17:17:01.715Z,1.2
2024-04-09T17:22:01.164Z,0.9
2024-04-09T17:27:01.815Z,1.1
2024-04-09T17:42:01.286Z,0.6
2024-04-09T17:47:02.823Z,0.4
2024-04-09T17:52:02.106Z,0.2
2024-04-09T17:57:01.615Z,0.0
2024-04-09T18:07:01.237Z,0.2
2024-04-09T18:12:01.744Z,0.2
2024-04-09T18:22:01.247Z,0.2
2024-04-09T18:27:01.280Z,0.0
2024-04-09T18:32:01.976Z,0.0
2024-04-09T18:47:01.951Z,0.0
2024-04-09T18:57:01.160Z,0.0
2024-04-09T19:27:01.633Z,0.0
2024-04-09T19:42:01.272Z,0.0
2024-04-09T20:22:01.289Z,0.0
2024-04-09T20:37:01.704Z,0.0
2024-04-09T21:22:01.828Z,0.0
2024-04-09T21:32:01.380Z,0.1
2024-04-09T21:37:01.749Z,0.3
2024-04-09T21:42:01.245Z,0.3
2024-04-09T21:57:01.163Z,0.4
2024-04-09T22:02:01.397Z,0.2
2024-04-09T22:17:01.308Z,0.4
2024-04-09T22:22:01.452Z,0.2
2024-04-09T22:32:01.248Z,0.2
2024-04-09T22:42:01.242Z,0.0
2024-04-09T22:47:01.488Z,0.2
2024-04-09T22:52:01.230Z,0.4
2024-04-09T22:57:01.931Z,0.6
2024-04-09T23:02:01.339Z,0.7
2024-04-09T23:07:01.204Z,0.6
2024-04-09T23:12:01.793Z,0.8
2024-04-09T23:17:01.602Z,0.6
2024-04-09T23:22:01.357Z,0.5
2024-04-09T23:27:01.239Z,0.4
2024-04-09T23:42:06.221Z,0.3
2024-04-09T23:48:01.834Z,0.5
2024-04-09T23:53:01.499Z,0.6
2024-04-09T23:58:01.366Z,0.8
